sensor_id;sensor_type;location;lat;lon;timestamp;P1;durP1;ratioP1;P2;durP2;ratioP2
15633;SDS011;14654;48.898;8.308;2024-02-16T00:01:30;6.17;;;4.43;;
15633;SDS011;14654;48.898;8.308;2024-02-16T00:03:56;5.47;;;4.10;;
15633;SDS011;14654;48.898;8.308;2024-02-16T00:06:21;4.67;;;3.57;;
15633;SDS011;14654;48.898;8.308;2024-02-16T00:08:46;8.07;;;4.50;;
15633;SDS011;14654;48.898;8.308;2024-02-16T00:11:12;4.47;;;4.00;;
15633;SDS011;14654;48.898;8.308;2024-02-16T00:13:37;4.87;;;4.10;;
15633;SDS011;14654;48.898;8.308;2024-02-16T00:16:02;4.43;;;3.53;;
15633;SDS011;14654;48.898;8.308;2024-02-16T00:18:28;4.77;;;3.50;;
15633;SDS011;14654;48.898;8.308;2024-02-16T00:20:53;5.00;;;4.00;;
15633;SDS011;14654;48.898;8.308;2024-02-16T00:23:19;5.23;;;3.63;;
15633;SDS011;14654;48.898;8.308;2024-02-16T00:25:47;4.73;;;3.37;;
15633;SDS011;14654;48.898;8.308;2024-02-16T00:28:13;3.90;;;3.50;;
15633;SDS011;14654;48.898;8.308;2024-02-16T00:30:38;4.70;;;3.60;;
15633;SDS011;14654;48.898;8.308;2024-02-16T00:33:03;4.90;;;3.60;;
15633;SDS011;14654;48.898;8.308;2024-02-16T00:35:29;4.53;;;3.77;;
15633;SDS011;14654;48.898;8.308;2024-02-16T00:37:58;3.70;;;3.40;;
15633;SDS011;14654;48.898;8.308;2024-02-16T00:40:24;4.60;;;3.77;;
15633;SDS011;14654;48.898;8.308;2024-02-16T00:42:49;4.10;;;3.70;;
15633;SDS011;14654;48.898;8.308;2024-02-16T00:45:15;4.00;;;3.50;;
15633;SDS011;14654;48.898;8.308;2024-02-16T00:47:40;4.37;;;3.97;;
15633;SDS011;14654;48.898;8.308;2024-02-16T00:50:05;4.73;;;3.70;;
15633;SDS011;14654;48.898;8.308;2024-02-16T00:52:33;4.03;;;3.70;;
15633;SDS011;14654;48.898;8.308;2024-02-16T00:54:59;3.60;;;3.30;;
15633;SDS011;14654;48.898;8.308;2024-02-16T00:57:24;4.27;;;3.87;;
15633;SDS011;14654;48.898;8.308;2024-02-16T00:59:49;4.37;;;3.63;;
15633;SDS011;14654;48.898;8.308;2024-02-16T01:02:15;4.00;;;3.47;;
15633;SDS011;14654;48.898;8.308;2024-02-16T01:04:41;4.10;;;3.60;;
15633;SDS011;14654;48.898;8.308;2024-02-16T01:07:08;4.17;;;3.77;;
15633;SDS011;14654;48.898;8.308;2024-02-16T01:09:33;3.67;;;3.37;;
15633;SDS011;14654;48.898;8.308;2024-02-16T01:11:58;4.20;;;3.80;;
15633;SDS011;14654;48.898;8.308;2024-02-16T01:14:24;8.63;;;5.20;;
15633;SDS011;14654;48.898;8.308;2024-02-16T01:16:49;6.97;;;4.73;;
15633;SDS011;14654;48.898;8.308;2024-02-16T01:19:14;7.43;;;4.90;;
15633;SDS011;14654;48.898;8.308;2024-02-16T01:21:40;5.53;;;4.47;;
15633;SDS011;14654;48.898;8.308;2024-02-16T01:24:06;6.53;;;4.50;;
15633;SDS011;14654;48.898;8.308;2024-02-16T01:26:31;5.73;;;4.50;;
15633;SDS011;14654;48.898;8.308;2024-02-16T01:28:57;8.33;;;4.63;;
15633;SDS011;14654;48.898;8.308;2024-02-16T01:31:23;8.57;;;4.17;;
15633;SDS011;14654;48.898;8.308;2024-02-16T01:33:48;5.73;;;3.70;;
15633;SDS011;14654;48.898;8.308;2024-02-16T01:36:13;7.43;;;4.57;;
15633;SDS011;14654;48.898;8.308;2024-02-16T01:38:39;4.73;;;4.20;;
15633;SDS011;14654;48.898;8.308;2024-02-16T01:41:04;5.50;;;4.33;;
15633;SDS011;14654;48.898;8.308;2024-02-16T01:43:32;4.63;;;3.90;;
15633;SDS011;14654;48.898;8.308;2024-02-16T01:45:57;4.60;;;3.43;;
15633;SDS011;14654;48.898;8.308;2024-02-16T01:48:24;4.67;;;3.47;;
15633;SDS011;14654;48.898;8.308;2024-02-16T01:50:51;3.43;;;3.13;;
15633;SDS011;14654;48.898;8.308;2024-02-16T01:53:18;5.53;;;4.10;;
15633;SDS011;14654;48.898;8.308;2024-02-16T01:55:46;5.50;;;4.37;;
15633;SDS011;14654;48.898;8.308;2024-02-16T01:58:12;4.97;;;4.47;;
15633;SDS011;14654;48.898;8.308;2024-02-16T02:00:39;4.00;;;3.63;;
15633;SDS011;14654;48.898;8.308;2024-02-16T02:03:05;4.50;;;3.83;;
15633;SDS011;14654;48.898;8.308;2024-02-16T02:05:31;4.50;;;4.10;;
15633;SDS011;14654;48.898;8.308;2024-02-16T02:07:56;3.50;;;2.93;;
15633;SDS011;14654;48.898;8.308;2024-02-16T02:10:22;4.00;;;3.27;;
15633;SDS011;14654;48.898;8.308;2024-02-16T02:12:47;6.47;;;3.90;;
15633;SDS011;14654;48.898;8.308;2024-02-16T02:15:12;6.00;;;3.43;;
15633;SDS011;14654;48.898;8.308;2024-02-16T02:17:38;3.77;;;3.00;;
15633;SDS011;14654;48.898;8.308;2024-02-16T02:20:04;4.90;;;3.50;;
15633;SDS011;14654;48.898;8.308;2024-02-16T02:22:33;4.10;;;3.27;;
15633;SDS011;14654;48.898;8.308;2024-02-16T02:24:58;4.23;;;3.37;;
15633;SDS011;14654;48.898;8.308;2024-02-16T02:27:23;6.17;;;3.83;;
15633;SDS011;14654;48.898;8.308;2024-02-16T02:29:48;4.77;;;3.17;;
15633;SDS011;14654;48.898;8.308;2024-02-16T02:32:14;3.90;;;3.33;;
15633;SDS011;14654;48.898;8.308;2024-02-16T02:34:40;4.60;;;3.83;;
15633;SDS011;14654;48.898;8.308;2024-02-16T02:37:05;4.17;;;3.77;;
15633;SDS011;14654;48.898;8.308;2024-02-16T02:39:31;4.47;;;3.70;;
15633;SDS011;14654;48.898;8.308;2024-02-16T02:41:57;4.43;;;3.67;;
15633;SDS011;14654;48.898;8.308;2024-02-16T02:44:23;4.67;;;3.67;;
15633;SDS011;14654;48.898;8.308;2024-02-16T02:46:51;4.77;;;3.70;;
15633;SDS011;14654;48.898;8.308;2024-02-16T02:49:17;4.63;;;3.60;;
15633;SDS011;14654;48.898;8.308;2024-02-16T02:51:42;3.40;;;3.10;;
15633;SDS011;14654;48.898;8.308;2024-02-16T02:54:08;6.87;;;3.70;;
15633;SDS011;14654;48.898;8.308;2024-02-16T02:56:33;4.50;;;3.57;;
15633;SDS011;14654;48.898;8.308;2024-02-16T02:58:59;4.47;;;3.83;;
15633;SDS011;14654;48.898;8.308;2024-02-16T03:01:24;4.20;;;3.50;;
15633;SDS011;14654;48.898;8.308;2024-02-16T03:03:49;4.10;;;3.50;;
15633;SDS011;14654;48.898;8.308;2024-02-16T03:06:20;3.87;;;3.47;;
15633;SDS011;14654;48.898;8.308;2024-02-16T03:08:46;4.13;;;3.73;;
15633;SDS011;14654;48.898;8.308;2024-02-16T03:11:12;3.73;;;3.43;;
15633;SDS011;14654;48.898;8.308;2024-02-16T03:13:37;4.57;;;3.80;;
15633;SDS011;14654;48.898;8.308;2024-02-16T03:16:03;4.33;;;3.50;;
15633;SDS011;14654;48.898;8.308;2024-02-16T03:18:32;4.50;;;3.87;;
15633;SDS011;14654;48.898;8.308;2024-02-16T03:20:58;4.53;;;3.60;;
15633;SDS011;14654;48.898;8.308;2024-02-16T03:23:23;5.40;;;3.50;;
15633;SDS011;14654;48.898;8.308;2024-02-16T03:25:49;3.90;;;3.40;;
15633;SDS011;14654;48.898;8.308;2024-02-16T03:28:14;4.10;;;3.43;;
15633;SDS011;14654;48.898;8.308;2024-02-16T03:30:40;4.00;;;3.23;;
15633;SDS011;14654;48.898;8.308;2024-02-16T03:33:07;3.93;;;3.20;;
15633;SDS011;14654;48.898;8.308;2024-02-16T03:35:32;4.57;;;2.97;;
15633;SDS011;14654;48.898;8.308;2024-02-16T03:37:58;3.90;;;2.80;;
15633;SDS011;14654;48.898;8.308;2024-02-16T03:40:24;2.73;;;2.40;;
15633;SDS011;14654;48.898;8.308;2024-02-16T03:42:50;2.83;;;2.60;;
15633;SDS011;14654;48.898;8.308;2024-02-16T03:45:15;4.00;;;2.53;;
15633;SDS011;14654;48.898;8.308;2024-02-16T03:47:41;2.80;;;2.40;;
15633;SDS011;14654;48.898;8.308;2024-02-16T03:50:07;3.57;;;2.77;;
15633;SDS011;14654;48.898;8.308;2024-02-16T03:52:32;2.93;;;2.63;;
15633;SDS011;14654;48.898;8.308;2024-02-16T03:54:58;2.90;;;2.70;;
15633;SDS011;14654;48.898;8.308;2024-02-16T03:57:23;3.47;;;3.10;;
15633;SDS011;14654;48.898;8.308;2024-02-16T03:59:49;3.43;;;2.50;;
15633;SDS011;14654;48.898;8.308;2024-02-16T04:02:14;3.30;;;2.60;;
15633;SDS011;14654;48.898;8.308;2024-02-16T04:04:39;5.73;;;3.70;;
15633;SDS011;14654;48.898;8.308;2024-02-16T04:07:05;5.97;;;4.27;;
15633;SDS011;14654;48.898;8.308;2024-02-16T04:09:33;3.77;;;3.30;;
15633;SDS011;14654;48.898;8.308;2024-02-16T04:11:59;5.00;;;4.50;;
15633;SDS011;14654;48.898;8.308;2024-02-16T04:14:25;6.63;;;4.53;;
15633;SDS011;14654;48.898;8.308;2024-02-16T04:16:50;6.13;;;4.30;;
15633;SDS011;14654;48.898;8.308;2024-02-16T04:19:15;4.57;;;3.67;;
15633;SDS011;14654;48.898;8.308;2024-02-16T04:21:41;4.17;;;3.50;;
15633;SDS011;14654;48.898;8.308;2024-02-16T04:24:06;3.53;;;3.23;;
15633;SDS011;14654;48.898;8.308;2024-02-16T04:26:32;4.70;;;3.67;;
15633;SDS011;14654;48.898;8.308;2024-02-16T04:28:58;5.33;;;3.50;;
15633;SDS011;14654;48.898;8.308;2024-02-16T04:31:23;5.83;;;3.23;;
15633;SDS011;14654;48.898;8.308;2024-02-16T04:33:48;4.00;;;3.27;;
15633;SDS011;14654;48.898;8.308;2024-02-16T04:36:13;4.23;;;3.40;;
15633;SDS011;14654;48.898;8.308;2024-02-16T04:38:40;6.33;;;3.43;;
15633;SDS011;14654;48.898;8.308;2024-02-16T04:41:05;3.13;;;2.83;;
15633;SDS011;14654;48.898;8.308;2024-02-16T04:43:31;5.20;;;3.07;;
15633;SDS011;14654;48.898;8.308;2024-02-16T04:45:56;3.30;;;3.07;;
15633;SDS011;14654;48.898;8.308;2024-02-16T04:48:21;3.60;;;3.30;;
15633;SDS011;14654;48.898;8.308;2024-02-16T04:50:47;4.13;;;3.40;;
15633;SDS011;14654;48.898;8.308;2024-02-16T04:53:12;3.53;;;3.03;;
15633;SDS011;14654;48.898;8.308;2024-02-16T04:55:37;3.53;;;3.23;;
15633;SDS011;14654;48.898;8.308;2024-02-16T04:58:02;4.17;;;3.50;;
15633;SDS011;14654;48.898;8.308;2024-02-16T05:00:33;3.87;;;3.10;;
15633;SDS011;14654;48.898;8.308;2024-02-16T05:02:59;4.60;;;3.47;;
15633;SDS011;14654;48.898;8.308;2024-02-16T05:05:24;4.33;;;3.20;;
15633;SDS011;14654;48.898;8.308;2024-02-16T05:07:50;3.77;;;3.47;;
15633;SDS011;14654;48.898;8.308;2024-02-16T05:10:15;4.27;;;3.50;;
15633;SDS011;14654;48.898;8.308;2024-02-16T05:12:41;4.33;;;3.50;;
15633;SDS011;14654;48.898;8.308;2024-02-16T05:15:06;5.03;;;3.57;;
15633;SDS011;14654;48.898;8.308;2024-02-16T05:17:32;3.70;;;3.30;;
15633;SDS011;14654;48.898;8.308;2024-02-16T05:19:57;4.17;;;3.33;;
15633;SDS011;14654;48.898;8.308;2024-02-16T05:22:23;4.20;;;3.17;;
15633;SDS011;14654;48.898;8.308;2024-02-16T05:24:48;6.73;;;3.87;;
15633;SDS011;14654;48.898;8.308;2024-02-16T05:27:13;6.00;;;3.90;;
15633;SDS011;14654;48.898;8.308;2024-02-16T05:29:39;6.37;;;4.07;;
15633;SDS011;14654;48.898;8.308;2024-02-16T05:32:05;4.27;;;3.63;;
15633;SDS011;14654;48.898;8.308;2024-02-16T05:34:30;4.10;;;3.70;;
15633;SDS011;14654;48.898;8.308;2024-02-16T05:37:02;4.10;;;3.70;;
15633;SDS011;14654;48.898;8.308;2024-02-16T05:39:32;4.07;;;3.67;;
15633;SDS011;14654;48.898;8.308;2024-02-16T05:42:00;3.90;;;3.50;;
15633;SDS011;14654;48.898;8.308;2024-02-16T05:44:26;4.27;;;3.33;;
15633;SDS011;14654;48.898;8.308;2024-02-16T05:46:51;3.60;;;3.30;;
15633;SDS011;14654;48.898;8.308;2024-02-16T05:49:17;4.70;;;3.60;;
15633;SDS011;14654;48.898;8.308;2024-02-16T05:51:42;4.10;;;3.60;;
15633;SDS011;14654;48.898;8.308;2024-02-16T05:54:22;3.83;;;2.97;;
15633;SDS011;14654;48.898;8.308;2024-02-16T05:56:47;4.27;;;3.70;;
15633;SDS011;14654;48.898;8.308;2024-02-16T05:59:14;4.17;;;3.63;;
15633;SDS011;14654;48.898;8.308;2024-02-16T06:01:39;3.53;;;3.23;;
15633;SDS011;14654;48.898;8.308;2024-02-16T06:04:04;5.57;;;3.67;;
15633;SDS011;14654;48.898;8.308;2024-02-16T06:06:30;4.20;;;3.20;;
15633;SDS011;14654;48.898;8.308;2024-02-16T06:08:55;5.07;;;4.23;;
15633;SDS011;14654;48.898;8.308;2024-02-16T06:11:20;3.93;;;3.50;;
15633;SDS011;14654;48.898;8.308;2024-02-16T06:13:45;4.47;;;3.37;;
15633;SDS011;14654;48.898;8.308;2024-02-16T06:16:11;3.83;;;3.43;;
15633;SDS011;14654;48.898;8.308;2024-02-16T06:18:36;3.93;;;3.43;;
15633;SDS011;14654;48.898;8.308;2024-02-16T06:21:01;3.30;;;3.00;;
15633;SDS011;14654;48.898;8.308;2024-02-16T06:23:27;3.83;;;2.90;;
15633;SDS011;14654;48.898;8.308;2024-02-16T06:25:52;4.00;;;2.80;;
15633;SDS011;14654;48.898;8.308;2024-02-16T06:28:18;3.53;;;3.13;;
15633;SDS011;14654;48.898;8.308;2024-02-16T06:30:43;4.57;;;3.20;;
15633;SDS011;14654;48.898;8.308;2024-02-16T06:33:08;5.37;;;3.50;;
15633;SDS011;14654;48.898;8.308;2024-02-16T06:35:35;4.83;;;2.90;;
15633;SDS011;14654;48.898;8.308;2024-02-16T06:38:00;5.20;;;3.10;;
15633;SDS011;14654;48.898;8.308;2024-02-16T06:40:25;4.67;;;3.43;;
15633;SDS011;14654;48.898;8.308;2024-02-16T06:42:51;3.23;;;2.93;;
15633;SDS011;14654;48.898;8.308;2024-02-16T06:45:17;5.80;;;3.10;;
15633;SDS011;14654;48.898;8.308;2024-02-16T06:47:42;3.57;;;3.10;;
15633;SDS011;14654;48.898;8.308;2024-02-16T06:50:08;3.53;;;2.70;;
15633;SDS011;14654;48.898;8.308;2024-02-16T06:52:33;4.33;;;2.63;;
15633;SDS011;14654;48.898;8.308;2024-02-16T06:54:59;3.97;;;3.30;;
15633;SDS011;14654;48.898;8.308;2024-02-16T06:57:24;3.97;;;2.97;;
15633;SDS011;14654;48.898;8.308;2024-02-16T06:59:50;3.93;;;2.63;;
15633;SDS011;14654;48.898;8.308;2024-02-16T07:02:17;3.97;;;2.60;;
15633;SDS011;14654;48.898;8.308;2024-02-16T07:04:43;3.77;;;2.63;;
15633;SDS011;14654;48.898;8.308;2024-02-16T07:07:10;3.03;;;2.17;;
15633;SDS011;14654;48.898;8.308;2024-02-16T07:09:36;2.50;;;2.17;;
15633;SDS011;14654;48.898;8.308;2024-02-16T07:12:01;2.70;;;2.47;;
15633;SDS011;14654;48.898;8.308;2024-02-16T07:14:27;5.63;;;2.50;;
15633;SDS011;14654;48.898;8.308;2024-02-16T07:16:53;4.37;;;2.33;;
15633;SDS011;14654;48.898;8.308;2024-02-16T07:19:18;2.67;;;2.40;;
15633;SDS011;14654;48.898;8.308;2024-02-16T07:21:43;2.63;;;2.43;;
15633;SDS011;14654;48.898;8.308;2024-02-16T07:24:09;4.17;;;3.30;;
15633;SDS011;14654;48.898;8.308;2024-02-16T07:26:35;3.50;;;2.60;;
15633;SDS011;14654;48.898;8.308;2024-02-16T07:29:01;3.17;;;2.73;;
15633;SDS011;14654;48.898;8.308;2024-02-16T07:31:31;4.47;;;2.90;;
15633;SDS011;14654;48.898;8.308;2024-02-16T07:33:58;3.80;;;2.70;;
15633;SDS011;14654;48.898;8.308;2024-02-16T07:36:23;3.53;;;2.80;;
15633;SDS011;14654;48.898;8.308;2024-02-16T07:38:48;6.37;;;2.90;;
15633;SDS011;14654;48.898;8.308;2024-02-16T07:41:14;3.97;;;2.60;;
15633;SDS011;14654;48.898;8.308;2024-02-16T07:43:39;6.20;;;4.00;;
15633;SDS011;14654;48.898;8.308;2024-02-16T07:46:04;4.57;;;3.77;;
15633;SDS011;14654;48.898;8.308;2024-02-16T07:48:30;7.57;;;3.90;;
15633;SDS011;14654;48.898;8.308;2024-02-16T07:50:55;7.30;;;3.77;;
15633;SDS011;14654;48.898;8.308;2024-02-16T07:53:23;5.30;;;3.80;;
15633;SDS011;14654;48.898;8.308;2024-02-16T07:55:48;3.50;;;3.20;;
15633;SDS011;14654;48.898;8.308;2024-02-16T07:58:14;3.47;;;3.17;;
15633;SDS011;14654;48.898;8.308;2024-02-16T08:00:39;6.20;;;3.73;;
15633;SDS011;14654;48.898;8.308;2024-02-16T08:03:04;4.23;;;3.83;;
15633;SDS011;14654;48.898;8.308;2024-02-16T08:05:29;5.03;;;4.20;;
15633;SDS011;14654;48.898;8.308;2024-02-16T08:07:55;5.80;;;4.17;;
15633;SDS011;14654;48.898;8.308;2024-02-16T08:10:20;7.90;;;4.43;;
15633;SDS011;14654;48.898;8.308;2024-02-16T08:12:46;6.37;;;4.00;;
15633;SDS011;14654;48.898;8.308;2024-02-16T08:15:12;7.47;;;4.67;;
15633;SDS011;14654;48.898;8.308;2024-02-16T08:17:39;5.27;;;3.83;;
15633;SDS011;14654;48.898;8.308;2024-02-16T08:20:05;6.77;;;3.70;;
15633;SDS011;14654;48.898;8.308;2024-02-16T08:22:31;5.80;;;3.87;;
15633;SDS011;14654;48.898;8.308;2024-02-16T08:24:57;5.37;;;3.63;;
15633;SDS011;14654;48.898;8.308;2024-02-16T08:27:23;3.73;;;3.37;;
15633;SDS011;14654;48.898;8.308;2024-02-16T08:29:49;4.37;;;3.47;;
15633;SDS011;14654;48.898;8.308;2024-02-16T08:32:16;3.20;;;2.90;;
15633;SDS011;14654;48.898;8.308;2024-02-16T08:34:43;3.37;;;2.83;;
15633;SDS011;14654;48.898;8.308;2024-02-16T08:37:08;3.27;;;2.97;;
15633;SDS011;14654;48.898;8.308;2024-02-16T08:39:37;3.90;;;3.40;;
15633;SDS011;14654;48.898;8.308;2024-02-16T08:42:03;4.03;;;3.60;;
15633;SDS011;14654;48.898;8.308;2024-02-16T08:44:29;4.70;;;3.63;;
15633;SDS011;14654;48.898;8.308;2024-02-16T08:46:54;4.10;;;3.70;;
15633;SDS011;14654;48.898;8.308;2024-02-16T08:49:19;4.10;;;3.77;;
15633;SDS011;14654;48.898;8.308;2024-02-16T08:51:45;3.87;;;3.20;;
15633;SDS011;14654;48.898;8.308;2024-02-16T08:54:10;3.50;;;3.20;;
15633;SDS011;14654;48.898;8.308;2024-02-16T08:56:36;3.70;;;3.40;;
15633;SDS011;14654;48.898;8.308;2024-02-16T08:59:04;3.57;;;3.27;;
15633;SDS011;14654;48.898;8.308;2024-02-16T09:01:32;3.43;;;3.00;;
15633;SDS011;14654;48.898;8.308;2024-02-16T09:04:02;3.47;;;3.17;;
15633;SDS011;14654;48.898;8.308;2024-02-16T09:06:28;3.50;;;3.20;;
15633;SDS011;14654;48.898;8.308;2024-02-16T09:08:54;6.17;;;3.80;;
15633;SDS011;14654;48.898;8.308;2024-02-16T09:11:19;3.67;;;3.23;;
15633;SDS011;14654;48.898;8.308;2024-02-16T09:13:45;3.80;;;3.13;;
15633;SDS011;14654;48.898;8.308;2024-02-16T09:16:11;4.13;;;3.73;;
15633;SDS011;14654;48.898;8.308;2024-02-16T09:18:36;4.30;;;3.17;;
15633;SDS011;14654;48.898;8.308;2024-02-16T09:21:04;4.10;;;3.70;;
15633;SDS011;14654;48.898;8.308;2024-02-16T09:23:31;3.83;;;3.27;;
15633;SDS011;14654;48.898;8.308;2024-02-16T09:25:57;4.37;;;3.97;;
15633;SDS011;14654;48.898;8.308;2024-02-16T09:28:24;3.90;;;3.50;;
15633;SDS011;14654;48.898;8.308;2024-02-16T09:30:49;4.20;;;3.40;;
15633;SDS011;14654;48.898;8.308;2024-02-16T09:33:15;3.97;;;3.40;;
15633;SDS011;14654;48.898;8.308;2024-02-16T09:35:40;3.70;;;3.30;;
15633;SDS011;14654;48.898;8.308;2024-02-16T09:38:05;4.80;;;3.53;;
15633;SDS011;14654;48.898;8.308;2024-02-16T09:40:31;3.77;;;3.20;;
15633;SDS011;14654;48.898;8.308;2024-02-16T09:42:57;5.50;;;3.80;;
15633;SDS011;14654;48.898;8.308;2024-02-16T09:45:23;3.77;;;3.30;;
15633;SDS011;14654;48.898;8.308;2024-02-16T09:47:49;3.40;;;3.10;;
15633;SDS011;14654;48.898;8.308;2024-02-16T09:50:16;3.33;;;2.97;;
15633;SDS011;14654;48.898;8.308;2024-02-16T09:52:42;5.13;;;3.73;;
15633;SDS011;14654;48.898;8.308;2024-02-16T09:55:12;4.20;;;3.33;;
15633;SDS011;14654;48.898;8.308;2024-02-16T09:57:39;4.33;;;3.47;;
15633;SDS011;14654;48.898;8.308;2024-02-16T10:00:05;3.77;;;3.37;;
15633;SDS011;14654;48.898;8.308;2024-02-16T10:02:43;3.43;;;3.13;;
15633;SDS011;14654;48.898;8.308;2024-02-16T10:05:14;3.53;;;2.80;;
15633;SDS011;14654;48.898;8.308;2024-02-16T10:07:41;3.57;;;3.10;;
15633;SDS011;14654;48.898;8.308;2024-02-16T10:10:19;5.47;;;3.20;;
15633;SDS011;14654;48.898;8.308;2024-02-16T10:12:48;3.67;;;3.37;;
15633;SDS011;14654;48.898;8.308;2024-02-16T10:15:22;5.87;;;3.10;;
15633;SDS011;14654;48.898;8.308;2024-02-16T10:17:59;5.27;;;3.23;;
15633;SDS011;14654;48.898;8.308;2024-02-16T10:20:27;4.23;;;3.23;;
15633;SDS011;14654;48.898;8.308;2024-02-16T10:23:06;4.10;;;3.70;;
15633;SDS011;14654;48.898;8.308;2024-02-16T10:25:32;3.50;;;3.20;;
15633;SDS011;14654;48.898;8.308;2024-02-16T10:28:06;3.70;;;2.77;;
15633;SDS011;14654;48.898;8.308;2024-02-16T10:30:36;3.23;;;2.93;;
15633;SDS011;14654;48.898;8.308;2024-02-16T10:33:03;3.17;;;2.87;;
15633;SDS011;14654;48.898;8.308;2024-02-16T10:35:30;3.10;;;2.80;;
15633;SDS011;14654;48.898;8.308;2024-02-16T10:37:58;2.83;;;2.40;;
15633;SDS011;14654;48.898;8.308;2024-02-16T10:40:27;4.67;;;2.60;;
15633;SDS011;14654;48.898;8.308;2024-02-16T10:42:54;4.37;;;3.10;;
15633;SDS011;14654;48.898;8.308;2024-02-16T10:45:19;3.30;;;3.00;;
15633;SDS011;14654;48.898;8.308;2024-02-16T10:47:46;2.50;;;2.10;;
15633;SDS011;14654;48.898;8.308;2024-02-16T10:50:12;3.57;;;2.67;;
15633;SDS011;14654;48.898;8.308;2024-02-16T10:52:38;3.27;;;2.90;;
15633;SDS011;14654;48.898;8.308;2024-02-16T10:55:06;3.67;;;2.53;;
15633;SDS011;14654;48.898;8.308;2024-02-16T10:57:32;4.20;;;2.90;;
15633;SDS011;14654;48.898;8.308;2024-02-16T11:00:00;5.07;;;3.93;;
15633;SDS011;14654;48.898;8.308;2024-02-16T11:02:50;2.90;;;2.60;;
15633;SDS011;14654;48.898;8.308;2024-02-16T11:05:17;3.53;;;2.43;;
15633;SDS011;14654;48.898;8.308;2024-02-16T11:07:44;2.70;;;2.30;;
15633;SDS011;14654;48.898;8.308;2024-02-16T11:10:11;3.17;;;2.23;;
15633;SDS011;14654;48.898;8.308;2024-02-16T11:12:37;3.50;;;2.80;;
15633;SDS011;14654;48.898;8.308;2024-02-16T11:15:04;3.90;;;2.60;;
15633;SDS011;14654;48.898;8.308;2024-02-16T11:17:33;3.77;;;2.40;;
15633;SDS011;14654;48.898;8.308;2024-02-16T11:20:00;5.03;;;2.50;;
15633;SDS011;14654;48.898;8.308;2024-02-16T11:22:26;3.50;;;2.50;;
15633;SDS011;14654;48.898;8.308;2024-02-16T11:24:53;4.30;;;2.53;;
15633;SDS011;14654;48.898;8.308;2024-02-16T11:27:19;3.37;;;2.73;;
15633;SDS011;14654;48.898;8.308;2024-02-16T11:29:46;2.90;;;2.20;;
15633;SDS011;14654;48.898;8.308;2024-02-16T11:32:12;3.27;;;2.20;;
15633;SDS011;14654;48.898;8.308;2024-02-16T11:34:37;3.63;;;2.70;;
15633;SDS011;14654;48.898;8.308;2024-02-16T11:37:03;4.83;;;2.47;;
15633;SDS011;14654;48.898;8.308;2024-02-16T11:39:32;5.17;;;2.73;;
15633;SDS011;14654;48.898;8.308;2024-02-16T11:42:11;3.53;;;2.33;;
15633;SDS011;14654;48.898;8.308;2024-02-16T11:44:38;4.27;;;2.63;;
15633;SDS011;14654;48.898;8.308;2024-02-16T11:47:05;4.17;;;2.50;;
15633;SDS011;14654;48.898;8.308;2024-02-16T11:49:35;3.33;;;2.40;;
15633;SDS011;14654;48.898;8.308;2024-02-16T11:52:01;3.60;;;2.07;;
15633;SDS011;14654;48.898;8.308;2024-02-16T11:54:29;3.50;;;2.30;;
15633;SDS011;14654;48.898;8.308;2024-02-16T11:56:55;2.73;;;1.97;;
15633;SDS011;14654;48.898;8.308;2024-02-16T11:59:21;3.93;;;2.10;;
15633;SDS011;14654;48.898;8.308;2024-02-16T12:04:25;4.67;;;2.50;;
15633;SDS011;14654;48.898;8.308;2024-02-16T12:06:53;4.93;;;1.83;;
15633;SDS011;14654;48.898;8.308;2024-02-16T12:09:20;6.40;;;2.60;;
15633;SDS011;14654;48.898;8.308;2024-02-16T12:11:47;4.17;;;2.60;;
15633;SDS011;14654;48.898;8.308;2024-02-16T12:14:14;3.30;;;2.33;;
15633;SDS011;14654;48.898;8.308;2024-02-16T12:16:40;4.83;;;2.60;;
15633;SDS011;14654;48.898;8.308;2024-02-16T12:19:06;5.10;;;2.40;;
15633;SDS011;14654;48.898;8.308;2024-02-16T12:21:31;3.70;;;2.20;;
15633;SDS011;14654;48.898;8.308;2024-02-16T12:23:56;4.03;;;2.13;;
15633;SDS011;14654;48.898;8.308;2024-02-16T12:26:22;4.60;;;2.40;;
15633;SDS011;14654;48.898;8.308;2024-02-16T12:28:47;2.93;;;2.20;;
15633;SDS011;14654;48.898;8.308;2024-02-16T12:31:20;3.27;;;2.57;;
15633;SDS011;14654;48.898;8.308;2024-02-16T12:33:46;4.00;;;2.40;;
15633;SDS011;14654;48.898;8.308;2024-02-16T12:36:12;4.17;;;2.03;;
15633;SDS011;14654;48.898;8.308;2024-02-16T12:38:37;3.20;;;1.77;;
15633;SDS011;14654;48.898;8.308;2024-02-16T12:41:02;5.47;;;1.90;;
15633;SDS011;14654;48.898;8.308;2024-02-16T12:43:28;2.77;;;1.57;;
15633;SDS011;14654;48.898;8.308;2024-02-16T12:45:54;2.97;;;1.67;;
15633;SDS011;14654;48.898;8.308;2024-02-16T12:48:19;2.17;;;1.47;;
15633;SDS011;14654;48.898;8.308;2024-02-16T12:50:45;5.07;;;1.77;;
15633;SDS011;14654;48.898;8.308;2024-02-16T12:53:12;4.37;;;1.73;;
15633;SDS011;14654;48.898;8.308;2024-02-16T12:55:37;3.00;;;1.67;;
15633;SDS011;14654;48.898;8.308;2024-02-16T12:58:03;2.97;;;1.90;;
15633;SDS011;14654;48.898;8.308;2024-02-16T13:00:28;4.63;;;1.77;;
15633;SDS011;14654;48.898;8.308;2024-02-16T13:02:54;2.80;;;1.70;;
15633;SDS011;14654;48.898;8.308;2024-02-16T13:05:19;2.70;;;1.70;;
15633;SDS011;14654;48.898;8.308;2024-02-16T13:07:45;2.83;;;1.80;;
15633;SDS011;14654;48.898;8.308;2024-02-16T13:10:10;2.90;;;1.70;;
15633;SDS011;14654;48.898;8.308;2024-02-16T13:12:36;2.50;;;1.50;;
15633;SDS011;14654;48.898;8.308;2024-02-16T13:15:02;2.97;;;1.53;;
15633;SDS011;14654;48.898;8.308;2024-02-16T13:17:29;2.93;;;1.60;;
15633;SDS011;14654;48.898;8.308;2024-02-16T13:19:54;2.93;;;1.63;;
15633;SDS011;14654;48.898;8.308;2024-02-16T13:22:20;3.13;;;1.17;;
15633;SDS011;14654;48.898;8.308;2024-02-16T13:24:45;3.47;;;1.67;;
15633;SDS011;14654;48.898;8.308;2024-02-16T13:27:10;2.37;;;1.40;;
15633;SDS011;14654;48.898;8.308;2024-02-16T13:29:37;4.63;;;1.80;;
15633;SDS011;14654;48.898;8.308;2024-02-16T13:32:02;3.17;;;1.63;;
15633;SDS011;14654;48.898;8.308;2024-02-16T13:34:28;4.30;;;2.17;;
15633;SDS011;14654;48.898;8.308;2024-02-16T13:36:55;1.80;;;1.40;;
15633;SDS011;14654;48.898;8.308;2024-02-16T13:39:20;2.83;;;1.70;;
15633;SDS011;14654;48.898;8.308;2024-02-16T13:41:46;5.50;;;2.23;;
15633;SDS011;14654;48.898;8.308;2024-02-16T13:44:13;5.53;;;2.50;;
15633;SDS011;14654;48.898;8.308;2024-02-16T13:46:38;3.27;;;2.50;;
15633;SDS011;14654;48.898;8.308;2024-02-16T13:49:04;3.00;;;2.20;;
15633;SDS011;14654;48.898;8.308;2024-02-16T13:51:29;3.43;;;2.13;;
15633;SDS011;14654;48.898;8.308;2024-02-16T13:53:54;3.93;;;2.40;;
15633;SDS011;14654;48.898;8.308;2024-02-16T13:56:20;3.97;;;2.30;;
15633;SDS011;14654;48.898;8.308;2024-02-16T13:58:45;3.20;;;2.30;;
15633;SDS011;14654;48.898;8.308;2024-02-16T14:01:12;3.87;;;2.30;;
15633;SDS011;14654;48.898;8.308;2024-02-16T14:03:38;3.63;;;2.30;;
15633;SDS011;14654;48.898;8.308;2024-02-16T14:06:04;4.37;;;2.40;;
15633;SDS011;14654;48.898;8.308;2024-02-16T14:08:30;4.23;;;2.33;;
15633;SDS011;14654;48.898;8.308;2024-02-16T14:10:56;3.70;;;2.43;;
15633;SDS011;14654;48.898;8.308;2024-02-16T14:13:21;3.27;;;2.30;;
15633;SDS011;14654;48.898;8.308;2024-02-16T14:15:49;3.97;;;2.17;;
15633;SDS011;14654;48.898;8.308;2024-02-16T14:18:15;4.17;;;1.63;;
15633;SDS011;14654;48.898;8.308;2024-02-16T14:20:40;3.00;;;1.60;;
15633;SDS011;14654;48.898;8.308;2024-02-16T14:23:06;1.93;;;1.50;;
15633;SDS011;14654;48.898;8.308;2024-02-16T14:25:32;3.00;;;1.60;;
15633;SDS011;14654;48.898;8.308;2024-02-16T14:27:58;2.80;;;1.70;;
15633;SDS011;14654;48.898;8.308;2024-02-16T14:30:23;3.07;;;1.50;;
15633;SDS011;14654;48.898;8.308;2024-02-16T14:32:49;3.10;;;1.50;;
15633;SDS011;14654;48.898;8.308;2024-02-16T14:35:14;2.73;;;1.90;;
15633;SDS011;14654;48.898;8.308;2024-02-16T14:37:39;2.40;;;1.50;;
15633;SDS011;14654;48.898;8.308;2024-02-16T14:40:05;3.00;;;1.57;;
15633;SDS011;14654;48.898;8.308;2024-02-16T14:42:35;4.07;;;1.80;;
15633;SDS011;14654;48.898;8.308;2024-02-16T14:45:01;3.83;;;1.47;;